createdAt,value
2022-10-18T06:09:27.886Z,20.1
2022-10-18T06:15:06.260Z,23.6
2022-10-18T06:20:47.887Z,27.4
2022-10-18T06:26:25.987Z,31.1
2022-10-18T06:32:08.322Z,34.8
2022-10-18T06:37:49.862Z,38.3
2022-10-18T06:43:44.598Z,41.6
2022-10-18T06:49:23.013Z,44.8
2022-10-18T06:55:23.539Z,46.9
2022-10-18T07:01:00.547Z,38.6
2022-10-18T07:06:39.614Z,39.4
2022-10-18T07:12:17.647Z,45.5
2022-10-18T07:18:37.623Z,45
2022-10-18T07:24:15.984Z,42.3
2022-10-18T07:29:57.919Z,43.8
2022-10-18T07:35:22.798Z,45.1
2022-10-18T07:41:02.098Z,46.1
2022-10-18T07:46:24.457Z,47.1
2022-10-18T07:52:06.251Z,48.4
2022-10-18T07:57:33.193Z,49.6
2022-10-18T08:02:39.365Z,50.3
2022-10-18T08:08:25.650Z,51.3
2022-10-18T08:14:04.033Z,52.3
2022-10-18T08:19:25.542Z,53.3
2022-10-18T08:31:36.746Z,55.5
2022-10-18T08:36:58.973Z,56.3
2022-10-18T08:42:37.011Z,56.7
2022-10-18T08:48:34.646Z,57.4
2022-10-18T08:54:17.843Z,58.2
2022-10-18T08:59:59.647Z,59.2
2022-10-18T09:05:23.621Z,59.8
2022-10-18T09:11:01.411Z,60.4
2022-10-18T09:16:38.961Z,61
2022-10-18T09:21:49.586Z,61.5
2022-10-18T09:27:29.932Z,62.2
2022-10-18T09:32:52.935Z,62.4
2022-10-18T09:38:31.367Z,62.4
2022-10-18T09:44:10.723Z,62.7
2022-10-18T09:49:51.948Z,63.3
2022-10-18T09:55:14.967Z,63.7
2022-10-18T10:00:57.800Z,63.9
2022-10-18T10:06:36.146Z,63.7
2022-10-18T10:12:16.971Z,64.1
2022-10-18T10:17:57.060Z,64.6
2022-10-18T14:33:49.601Z,41.4
2022-10-18T14:39:59.815Z,39.7
2022-10-18T14:45:37.201Z,38.2
2022-10-18T14:51:17.572Z,36.6
2022-10-18T14:57:01.963Z,34.9
2022-10-18T15:02:39.640Z,33.3
2022-10-18T15:08:16.419Z,31.6
2022-10-18T15:14:20.091Z,29.9
2022-10-18T15:19:58.498Z,28.4
2022-10-18T15:25:49.348Z,26.8
2022-10-18T15:31:28.371Z,25.2
2022-10-18T15:37:11.295Z,23.8
2022-10-18T15:42:49.136Z,22.4
2022-10-18T15:48:30.718Z,21.3
2022-10-18T15:54:07.544Z,20.3
2022-10-18T15:59:47.450Z,19.4
2022-10-18T16:10:33.620Z,18
2022-10-18T16:16:01.387Z,17.4
2022-10-18T16:21:08.767Z,16.8
2022-10-18T16:26:21.327Z,16.3
2022-10-18T16:31:43.883Z,15.8
2022-10-18T16:36:51.362Z,15.4
2022-10-18T16:42:17.238Z,14.9
2022-10-18T16:47:29.533Z,14.6
2022-10-18T16:52:39.757Z,14.3
2022-10-18T16:57:46.092Z,13.9
2022-10-18T17:02:41.650Z,13.7
2022-10-18T17:07:49.104Z,13.5
2022-10-18T17:12:55.662Z,13.4
2022-10-18T17:18:08.079Z,13.4
2022-10-18T17:23:14.901Z,13.3
2022-10-18T17:29:05.020Z,13.1
2022-10-18T17:34:26.487Z,12.9
2022-10-18T17:39:49.840Z,12.6
2022-10-18T17:45:15.240Z,12.3
2022-10-18T17:50:37.054Z,11.9
2022-10-18T17:56:08.649Z,11.5
2022-10-18T18:01:30.857Z,11.2
2022-10-18T18:06:26.683Z,10.9
2022-10-18T18:12:05.201Z,10.6
2022-10-18T18:17:34.238Z,10.4
2022-10-18T18:23:11.671Z,10.3
2022-10-18T18:28:24.233Z,10.3
2022-10-18T18:34:06.118Z,10.1
2022-10-18T18:39:27.624Z,9.9
